Umiat, Alaska
Current Conditions -  °F | °C
As of 6:53 PM on Tuesday 27 Jan 2015 (Local Time) from PAQT Reporting Station
Haze Haze  
Wind Chill: -34°   Ceiling: 6000
Heat Index: -10°   Visibility: 2.5mi
Dew Point: -15°   Wind: 18mph
Humidity: 78%   Direction: 260°W
Pressure: 30.38"   Gusts: NA
Location:  69.37°N, 152.13°W
Report Text: PAQT 280353Z AUTO 26016KT 2 1/2SM HZ OVC060 M23/M26 A3038 RMK SLP288 T12331261 TSNO VIA AUTODIAL
Loading
Personal Weather Stations






























Interactive Weather Map New forecast layout! Learn more

10-Day Weather Forecast

Advertisements
Track Severe Weather on mobile